Impacts TAF Board
For situational awareness. Not to be used for flight planning purposes.
IDs:

KLGA - New York/La Guardia, NY, US

Issued at 1723 UTC 23 Jan 2019
Updated at 1824 UTC 23 Jan 2019
Potential Impact None Slight Moderate High
Time<<24/19Z 24/20Z 24/21Z 24/22Z 24/23Z 25/00Z 25/01Z 25/02Z 25/03Z 25/04Z 25/05Z 25/06Z 25/07Z
Type PRVL PRVL PRVL PRVL PRVL
VIS 6 6 6 >6 >6
CIG 10 10 10 40 40
Cover BKN BKN BKN BKN BKN
FltCat MVFR MVFR MVFR VFR VFR
WX -RA -RA -RA -- --
WDir 300 300 300 310 310
WSpd 20 20 20 25 25
WGst -- -- -- 34 34
Raw TAF
KLGA 231723Z 2318/2424 21013KT P6SM SCT025 BKN035
  TEMPO 2318/2321 BKN025
  FM232100 19010KT P6SM VCSH SCT025 OVC040 WS020/21045KT
  FM240000 19012KT P6SM VCSH SCT015 BKN025 WS020/21050KT
  FM240300 19013KT 5SM -RA BR SCT007 BKN015 WS020/21050KT
  FM240700 19013KT 5SM -RA BR BKN007 BKN015 WS020/21050KT
  FM240900 17017KT 2SM RA BR OVC007 WS020/20055KT
  FM241400 17020KT 1SM +RA OVC005 WS020/20065KT
  FM241900 30020KT 6SM -RA SCT005 BKN010
  FM242200 31025G34KT P6SM SCT020 BKN040


METAR Board
Radar Display
Forecast Discussion
For situational awareness. Not to be used for flight planning purposes.